sensor_id;sensor_type;location;lat;lon;timestamp;pressure;altitude;pressure_sealevel;temperature;humidity
80640;BME280;69992;60.170;24.692;2024-03-08T00:00:15;102355.11;;;-11.48;30.33
80640;BME280;69992;60.170;24.692;2024-03-08T00:02:39;102354.21;;;-11.11;30.23
80640;BME280;69992;60.170;24.692;2024-03-08T00:05:06;102355.16;;;-10.02;30.26
80640;BME280;69992;60.170;24.692;2024-03-08T00:07:30;102349.53;;;-10.12;30.26
80640;BME280;69992;60.170;24.692;2024-03-08T00:09:56;102348.36;;;-11.09;30.32
80640;BME280;69992;60.170;24.692;2024-03-08T00:12:21;102345.84;;;-11.99;30.34
80640;BME280;69992;60.170;24.692;2024-03-08T00:14:47;102342.59;;;-11.03;30.37
80640;BME280;69992;60.170;24.692;2024-03-08T00:17:12;102341.24;;;-10.86;30.38
80640;BME280;69992;60.170;24.692;2024-03-08T00:19:37;102339.36;;;-11.69;30.37
80640;BME280;69992;60.170;24.692;2024-03-08T00:22:03;102334.14;;;-10.58;30.31
80640;BME280;69992;60.170;24.692;2024-03-08T00:24:29;102337.86;;;-10.49;30.34
80640;BME280;69992;60.170;24.692;2024-03-08T00:26:54;102335.79;;;-11.47;30.34
80640;BME280;69992;60.170;24.692;2024-03-08T00:29:19;102336.61;;;-11.47;30.39
80640;BME280;69992;60.170;24.692;2024-03-08T00:31:45;102336.78;;;-10.48;30.40
80640;BME280;69992;60.170;24.692;2024-03-08T00:34:10;102337.53;;;-11.39;30.41
80640;BME280;69992;60.170;24.692;2024-03-08T00:36:35;102336.77;;;-9.38;30.40
80640;BME280;69992;60.170;24.692;2024-03-08T00:39:01;102331.53;;;-10.34;30.42
80640;BME280;69992;60.170;24.692;2024-03-08T00:41:26;102330.66;;;-11.24;30.41
80640;BME280;69992;60.170;24.692;2024-03-08T00:43:51;102330.99;;;-11.11;30.43
80640;BME280;69992;60.170;24.692;2024-03-08T00:46:27;102330.61;;;-10.08;30.45
80640;BME280;69992;60.170;24.692;2024-03-08T00:48:43;102332.83;;;-9.99;30.40
80640;BME280;69992;60.170;24.692;2024-03-08T00:51:08;102334.32;;;-10.93;30.42
80640;BME280;69992;60.170;24.692;2024-03-08T00:53:33;102335.31;;;-10.86;30.44
80640;BME280;69992;60.170;24.692;2024-03-08T00:55:58;102338.48;;;-10.79;30.48
80640;BME280;69992;60.170;24.692;2024-03-08T00:58:24;102340.76;;;-10.63;30.46
80640;BME280;69992;60.170;24.692;2024-03-08T01:00:50;102338.29;;;-11.51;30.46
80640;BME280;69992;60.170;24.692;2024-03-08T01:03:15;102338.41;;;-10.44;30.46
80640;BME280;69992;60.170;24.692;2024-03-08T01:05:40;102341.64;;;-10.32;30.44
80640;BME280;69992;60.170;24.692;2024-03-08T01:08:06;102336.63;;;-12.15;30.44
80640;BME280;69992;60.170;24.692;2024-03-08T01:10:31;102336.93;;;-10.14;30.41
80640;BME280;69992;60.170;24.692;2024-03-08T01:13:00;102336.15;;;-10.05;30.42
80640;BME280;69992;60.170;24.692;2024-03-08T01:15:22;102335.07;;;-9.05;30.45
80640;BME280;69992;60.170;24.692;2024-03-08T01:17:48;102335.40;;;-11.91;30.43
80640;BME280;69992;60.170;24.692;2024-03-08T01:20:14;102334.84;;;-10.89;30.44
80640;BME280;69992;60.170;24.692;2024-03-08T01:22:40;102334.90;;;-9.96;30.45
80640;BME280;69992;60.170;24.692;2024-03-08T01:25:05;102333.03;;;-9.92;30.47
80640;BME280;69992;60.170;24.692;2024-03-08T01:27:30;102329.43;;;-9.92;30.46
80640;BME280;69992;60.170;24.692;2024-03-08T01:29:55;102331.71;;;-10.00;30.52
80640;BME280;69992;60.170;24.692;2024-03-08T01:32:20;102334.56;;;-9.02;30.54
80640;BME280;69992;60.170;24.692;2024-03-08T01:34:46;102334.71;;;-10.12;30.61
80640;BME280;69992;60.170;24.692;2024-03-08T01:37:11;102335.08;;;-10.20;30.64
80640;BME280;69992;60.170;24.692;2024-03-08T01:39:36;102333.63;;;-11.01;30.62
80640;BME280;69992;60.170;24.692;2024-03-08T01:42:01;102335.32;;;-9.90;30.56
80640;BME280;69992;60.170;24.692;2024-03-08T01:44:27;102337.68;;;-9.84;30.57
80640;BME280;69992;60.170;24.692;2024-03-08T01:46:52;102339.45;;;-11.68;30.56
80640;BME280;69992;60.170;24.692;2024-03-08T01:49:22;102341.34;;;-9.61;30.55
80640;BME280;69992;60.170;24.692;2024-03-08T01:51:44;102342.56;;;-9.56;30.58
80640;BME280;69992;60.170;24.692;2024-03-08T01:54:10;102342.32;;;-9.48;30.59
80640;BME280;69992;60.170;24.692;2024-03-08T01:56:35;102339.31;;;-9.35;30.57
80640;BME280;69992;60.170;24.692;2024-03-08T01:59:01;102338.76;;;-11.23;30.57
80640;BME280;69992;60.170;24.692;2024-03-08T02:01:29;102339.54;;;-10.20;30.58
80640;BME280;69992;60.170;24.692;2024-03-08T02:03:52;102335.36;;;-11.24;30.56
80640;BME280;69992;60.170;24.692;2024-03-08T02:06:18;102330.60;;;-9.41;30.61
80640;BME280;69992;60.170;24.692;2024-03-08T02:08:44;102329.42;;;-9.55;30.64
80640;BME280;69992;60.170;24.692;2024-03-08T02:11:08;102331.95;;;-9.70;30.76
80640;BME280;69992;60.170;24.692;2024-03-08T02:13:34;102325.68;;;-10.52;30.74
80640;BME280;69992;60.170;24.692;2024-03-08T02:16:00;102318.74;;;-10.46;30.73
80640;BME280;69992;60.170;24.692;2024-03-08T02:18:24;102316.27;;;-9.32;30.70
80640;BME280;69992;60.170;24.692;2024-03-08T02:20:49;102317.10;;;-10.16;30.68
80640;BME280;69992;60.170;24.692;2024-03-08T02:23:14;102318.99;;;-9.05;30.66
80640;BME280;69992;60.170;24.692;2024-03-08T02:25:39;102319.65;;;-11.02;30.68
80640;BME280;69992;60.170;24.692;2024-03-08T02:28:05;102316.46;;;-9.16;30.73
80640;BME280;69992;60.170;24.692;2024-03-08T02:30:30;102318.71;;;-11.19;30.69
80640;BME280;69992;60.170;24.692;2024-03-08T02:32:56;102318.70;;;-9.28;30.74
80640;BME280;69992;60.170;24.692;2024-03-08T02:35:22;102317.09;;;-9.36;30.73
80640;BME280;69992;60.170;24.692;2024-03-08T02:37:46;102309.06;;;-10.51;30.80
80640;BME280;69992;60.170;24.692;2024-03-08T02:40:12;102313.27;;;-9.51;30.80
80640;BME280;69992;60.170;24.692;2024-03-08T02:42:36;102314.91;;;-9.51;30.82
80640;BME280;69992;60.170;24.692;2024-03-08T02:45:02;102313.72;;;-10.46;30.80
80640;BME280;69992;60.170;24.692;2024-03-08T02:47:27;102311.14;;;-9.41;30.83
80640;BME280;69992;60.170;24.692;2024-03-08T02:49:53;102319.27;;;-10.20;30.79
80640;BME280;69992;60.170;24.692;2024-03-08T02:52:19;102316.85;;;-9.08;30.75
80640;BME280;69992;60.170;24.692;2024-03-08T02:54:43;102319.98;;;-9.12;30.77
80640;BME280;69992;60.170;24.692;2024-03-08T02:57:09;102314.38;;;-11.10;30.80
80640;BME280;69992;60.170;24.692;2024-03-08T02:59:34;102321.10;;;-10.01;30.78
80640;BME280;69992;60.170;24.692;2024-03-08T03:01:59;102321.11;;;-10.95;30.80
80640;BME280;69992;60.170;24.692;2024-03-08T03:04:24;102317.49;;;-9.05;30.81
80640;BME280;69992;60.170;24.692;2024-03-08T03:06:50;102325.55;;;-11.02;30.85
80640;BME280;69992;60.170;24.692;2024-03-08T03:09:15;102323.24;;;-8.99;30.82
80640;BME280;69992;60.170;24.692;2024-03-08T03:11:44;102322.42;;;-9.06;30.78
80640;BME280;69992;60.170;24.692;2024-03-08T03:14:05;102321.93;;;-10.19;30.89
80640;BME280;69992;60.170;24.692;2024-03-08T03:16:31;102323.07;;;-9.16;30.88
80640;BME280;69992;60.170;24.692;2024-03-08T03:18:57;102323.17;;;-10.96;30.88
80640;BME280;69992;60.170;24.692;2024-03-08T03:21:22;102324.13;;;-8.95;30.83
80640;BME280;69992;60.170;24.692;2024-03-08T03:23:49;102325.86;;;-10.88;30.86
80640;BME280;69992;60.170;24.692;2024-03-08T03:26:13;102322.66;;;-8.76;30.87
80640;BME280;69992;60.170;24.692;2024-03-08T03:28:39;102323.43;;;-9.53;30.84
80640;BME280;69992;60.170;24.692;2024-03-08T03:31:04;102329.63;;;-9.26;30.78
80640;BME280;69992;60.170;24.692;2024-03-08T03:33:29;102327.00;;;-10.18;30.73
80640;BME280;69992;60.170;24.692;2024-03-08T03:35:55;102323.69;;;-10.15;30.77
80640;BME280;69992;60.170;24.692;2024-03-08T03:38:20;102329.83;;;-10.09;30.77
80640;BME280;69992;60.170;24.692;2024-03-08T03:40:46;102329.61;;;-9.06;30.77
80640;BME280;69992;60.170;24.692;2024-03-08T03:43:11;102331.52;;;-8.16;30.82
80640;BME280;69992;60.170;24.692;2024-03-08T03:45:37;102330.84;;;-10.12;30.85
80640;BME280;69992;60.170;24.692;2024-03-08T03:48:03;102332.97;;;-10.07;30.85
80640;BME280;69992;60.170;24.692;2024-03-08T03:50:27;102335.79;;;-8.02;30.82
80640;BME280;69992;60.170;24.692;2024-03-08T03:52:52;102334.44;;;-9.95;30.84
80640;BME280;69992;60.170;24.692;2024-03-08T03:55:17;102337.35;;;-10.00;30.83
80640;BME280;69992;60.170;24.692;2024-03-08T03:57:44;102342.81;;;-8.04;30.85
80640;BME280;69992;60.170;24.692;2024-03-08T04:00:08;102336.21;;;-9.98;30.87
80640;BME280;69992;60.170;24.692;2024-03-08T04:02:33;102336.70;;;-9.88;30.86
80640;BME280;69992;60.170;24.692;2024-03-08T04:04:58;102335.27;;;-10.76;30.84
80640;BME280;69992;60.170;24.692;2024-03-08T04:07:23;102339.49;;;-9.70;30.85
80640;BME280;69992;60.170;24.692;2024-03-08T04:09:49;102338.97;;;-10.71;30.87
80640;BME280;69992;60.170;24.692;2024-03-08T04:12:14;102345.01;;;-9.58;30.85
80640;BME280;69992;60.170;24.692;2024-03-08T04:14:41;102346.12;;;-9.50;30.81
80640;BME280;69992;60.170;24.692;2024-03-08T04:17:04;102350.77;;;-9.43;30.81
80640;BME280;69992;60.170;24.692;2024-03-08T04:19:29;102351.79;;;-9.44;30.82
80640;BME280;69992;60.170;24.692;2024-03-08T04:22:00;102348.53;;;-10.35;30.84
80640;BME280;69992;60.170;24.692;2024-03-08T04:24:19;102350.34;;;-9.34;30.78
80640;BME280;69992;60.170;24.692;2024-03-08T04:26:46;102357.43;;;-9.37;30.81
80640;BME280;69992;60.170;24.692;2024-03-08T04:29:10;102352.29;;;-9.45;30.86
80640;BME280;69992;60.170;24.692;2024-03-08T04:31:35;102353.74;;;-9.39;30.90
80640;BME280;69992;60.170;24.692;2024-03-08T04:34:02;102355.37;;;-9.34;30.87
80640;BME280;69992;60.170;24.692;2024-03-08T04:36:25;102354.53;;;-9.49;30.91
80640;BME280;69992;60.170;24.692;2024-03-08T04:38:51;102358.10;;;-10.43;30.93
80640;BME280;69992;60.170;24.692;2024-03-08T04:41:16;102358.23;;;-9.35;30.93
80640;BME280;69992;60.170;24.692;2024-03-08T04:43:41;102361.57;;;-9.20;30.91
80640;BME280;69992;60.170;24.692;2024-03-08T04:46:06;102362.40;;;-10.04;30.90
80640;BME280;69992;60.170;24.692;2024-03-08T04:48:31;102361.17;;;-9.92;30.88
80640;BME280;69992;60.170;24.692;2024-03-08T04:50:57;102365.35;;;-8.82;30.88
80640;BME280;69992;60.170;24.692;2024-03-08T04:53:22;102361.20;;;-8.72;30.85
80640;BME280;69992;60.170;24.692;2024-03-08T04:55:47;102362.41;;;-9.67;30.85
80640;BME280;69992;60.170;24.692;2024-03-08T04:58:12;102362.87;;;-8.60;30.85
80640;BME280;69992;60.170;24.692;2024-03-08T05:00:37;102362.35;;;-8.49;30.84
80640;BME280;69992;60.170;24.692;2024-03-08T05:03:04;102363.48;;;-8.50;30.85
80640;BME280;69992;60.170;24.692;2024-03-08T05:05:28;102364.64;;;-9.50;30.86
80640;BME280;69992;60.170;24.692;2024-03-08T05:07:54;102368.17;;;-9.64;30.87
80640;BME280;69992;60.170;24.692;2024-03-08T05:10:22;102365.54;;;-8.77;30.91
80640;BME280;69992;60.170;24.692;2024-03-08T05:12:45;102365.46;;;-9.76;30.91
80640;BME280;69992;60.170;24.692;2024-03-08T05:15:10;102369.61;;;-8.98;31.01
80640;BME280;69992;60.170;24.692;2024-03-08T05:17:36;102372.74;;;-9.96;31.01
80640;BME280;69992;60.170;24.692;2024-03-08T05:20:01;102367.37;;;-9.03;31.02
80640;BME280;69992;60.170;24.692;2024-03-08T05:22:27;102367.42;;;-9.21;31.05
80640;BME280;69992;60.170;24.692;2024-03-08T05:24:52;102371.64;;;-9.28;31.10
80640;BME280;69992;60.170;24.692;2024-03-08T05:27:17;102370.57;;;-10.20;31.09
80640;BME280;69992;60.170;24.692;2024-03-08T05:29:43;102372.66;;;-8.21;31.05
80640;BME280;69992;60.170;24.692;2024-03-08T05:32:08;102373.47;;;-9.28;31.09
80640;BME280;69992;60.170;24.692;2024-03-08T05:34:33;102375.19;;;-9.27;31.11
80640;BME280;69992;60.170;24.692;2024-03-08T05:36:59;102380.57;;;-9.24;31.10
80640;BME280;69992;60.170;24.692;2024-03-08T05:39:24;102381.88;;;-9.11;31.08
80640;BME280;69992;60.170;24.692;2024-03-08T05:41:49;102386.88;;;-9.95;31.07
80640;BME280;69992;60.170;24.692;2024-03-08T05:44:15;102382.79;;;-9.84;31.04
80640;BME280;69992;60.170;24.692;2024-03-08T05:46:40;102382.87;;;-8.68;31.01
80640;BME280;69992;60.170;24.692;2024-03-08T05:49:06;102387.63;;;-8.52;31.00
80640;BME280;69992;60.170;24.692;2024-03-08T05:51:31;102386.42;;;-8.40;31.00
80640;BME280;69992;60.170;24.692;2024-03-08T05:53:56;102390.75;;;-9.25;30.99
80640;BME280;69992;60.170;24.692;2024-03-08T05:56:21;102391.73;;;-8.16;30.95
80640;BME280;69992;60.170;24.692;2024-03-08T05:58:49;102394.78;;;-9.19;30.95
80640;BME280;69992;60.170;24.692;2024-03-08T06:01:12;102395.29;;;-8.23;30.96
80640;BME280;69992;60.170;24.692;2024-03-08T06:03:37;102394.96;;;-8.22;30.97
80640;BME280;69992;60.170;24.692;2024-03-08T06:06:03;102395.52;;;-9.18;31.00
80640;BME280;69992;60.170;24.692;2024-03-08T06:08:28;102399.12;;;-9.08;31.00
80640;BME280;69992;60.170;24.692;2024-03-08T06:10:53;102402.57;;;-10.03;31.03
80640;BME280;69992;60.170;24.692;2024-03-08T06:13:18;102403.75;;;-9.01;31.00
80640;BME280;69992;60.170;24.692;2024-03-08T06:15:43;102405.48;;;-8.17;31.06
80640;BME280;69992;60.170;24.692;2024-03-08T06:18:09;102400.94;;;-8.19;31.08
80640;BME280;69992;60.170;24.692;2024-03-08T06:20:34;102402.44;;;-8.13;31.07
80640;BME280;69992;60.170;24.692;2024-03-08T06:23:01;102404.92;;;-7.93;31.02
80640;BME280;69992;60.170;24.692;2024-03-08T06:25:24;102406.57;;;-8.87;31.03
80640;BME280;69992;60.170;24.692;2024-03-08T06:27:49;102406.00;;;-8.86;31.02
80640;BME280;69992;60.170;24.692;2024-03-08T06:30:15;102406.88;;;-8.83;31.01
80640;BME280;69992;60.170;24.692;2024-03-08T06:32:40;102409.20;;;-8.75;31.03
80640;BME280;69992;60.170;24.692;2024-03-08T06:35:06;102409.39;;;-7.68;30.98
80640;BME280;69992;60.170;24.692;2024-03-08T06:37:30;102411.00;;;-7.86;30.97
80640;BME280;69992;60.170;24.692;2024-03-08T06:39:56;102411.29;;;-9.03;31.04
80640;BME280;69992;60.170;24.692;2024-03-08T06:42:21;102413.27;;;-8.06;31.07
80640;BME280;69992;60.170;24.692;2024-03-08T06:44:47;102412.68;;;-9.95;31.05
80640;BME280;69992;60.170;24.692;2024-03-08T06:47:13;102412.23;;;-9.05;31.06
80640;BME280;69992;60.170;24.692;2024-03-08T06:49:38;102414.48;;;-8.03;31.07
80640;BME280;69992;60.170;24.692;2024-03-08T06:52:03;102416.91;;;-9.85;31.05
80640;BME280;69992;60.170;24.692;2024-03-08T06:54:28;102418.56;;;-7.79;31.05
80640;BME280;69992;60.170;24.692;2024-03-08T06:56:54;102414.41;;;-9.63;31.05
80640;BME280;69992;60.170;24.692;2024-03-08T06:59:21;102416.99;;;-8.51;31.03
80640;BME280;69992;60.170;24.692;2024-03-08T07:01:46;102418.93;;;-8.43;31.04
80640;BME280;69992;60.170;24.692;2024-03-08T07:04:10;102421.46;;;-8.61;31.00
80640;BME280;69992;60.170;24.692;2024-03-08T07:06:35;102421.76;;;-8.90;31.07
80640;BME280;69992;60.170;24.692;2024-03-08T07:09:00;102421.07;;;-8.11;31.14
80640;BME280;69992;60.170;24.692;2024-03-08T07:11:26;102420.76;;;-9.08;31.16
80640;BME280;69992;60.170;24.692;2024-03-08T07:13:51;102420.10;;;-10.00;31.13
80640;BME280;69992;60.170;24.692;2024-03-08T07:16:16;102425.42;;;-9.03;31.14
80640;BME280;69992;60.170;24.692;2024-03-08T07:18:41;102423.95;;;-9.08;31.12
80640;BME280;69992;60.170;24.692;2024-03-08T07:21:06;102426.07;;;-8.09;31.14
80640;BME280;69992;60.170;24.692;2024-03-08T07:23:31;102427.28;;;-9.07;31.14
80640;BME280;69992;60.170;24.692;2024-03-08T07:25:56;102427.94;;;-8.98;31.13
80640;BME280;69992;60.170;24.692;2024-03-08T07:28:21;102423.89;;;-8.82;31.11
80640;BME280;69992;60.170;24.692;2024-03-08T07:30:47;102423.60;;;-7.65;31.07
80640;BME280;69992;60.170;24.692;2024-03-08T07:33:12;102421.67;;;-8.44;31.07
80640;BME280;69992;60.170;24.692;2024-03-08T07:35:37;102423.56;;;-8.35;31.07
80640;BME280;69992;60.170;24.692;2024-03-08T07:38:02;102427.34;;;-9.22;31.04
80640;BME280;69992;60.170;24.692;2024-03-08T07:40:29;102429.16;;;-9.12;31.04
80640;BME280;69992;60.170;24.692;2024-03-08T07:42:52;102429.38;;;-8.14;31.09
80640;BME280;69992;60.170;24.692;2024-03-08T07:45:17;102429.42;;;-8.13;31.13
80640;BME280;69992;60.170;24.692;2024-03-08T07:47:43;102429.38;;;-7.95;31.10
80640;BME280;69992;60.170;24.692;2024-03-08T07:50:08;102431.47;;;-7.76;31.06
80640;BME280;69992;60.170;24.692;2024-03-08T07:52:33;102433.15;;;-7.74;31.03
80640;BME280;69992;60.170;24.692;2024-03-08T07:54:58;102431.67;;;-8.62;31.05
80640;BME280;69992;60.170;24.692;2024-03-08T07:57:24;102429.97;;;-6.53;31.03
80640;BME280;69992;60.170;24.692;2024-03-08T07:59:49;102432.15;;;-8.44;31.03
80640;BME280;69992;60.170;24.692;2024-03-08T08:02:14;102433.57;;;-8.31;31.03
80640;BME280;69992;60.170;24.692;2024-03-08T08:04:40;102433.71;;;-7.25;31.01
80640;BME280;69992;60.170;24.692;2024-03-08T08:07:05;102432.24;;;-8.20;31.02
80640;BME280;69992;60.170;24.692;2024-03-08T08:09:30;102436.13;;;-7.22;31.03
80640;BME280;69992;60.170;24.692;2024-03-08T08:11:55;102436.50;;;-8.14;31.07
80640;BME280;69992;60.170;24.692;2024-03-08T08:14:21;102437.31;;;-8.05;31.08
80640;BME280;69992;60.170;24.692;2024-03-08T08:16:46;102437.27;;;-8.02;31.06
80640;BME280;69992;60.170;24.692;2024-03-08T08:19:11;102435.41;;;-8.00;31.05
80640;BME280;69992;60.170;24.692;2024-03-08T08:21:36;102440.63;;;-8.11;31.09
80640;BME280;69992;60.170;24.692;2024-03-08T08:24:01;102440.75;;;-9.20;31.11
80640;BME280;69992;60.170;24.692;2024-03-08T08:26:27;102438.82;;;-7.25;31.13
80640;BME280;69992;60.170;24.692;2024-03-08T08:28:52;102440.66;;;-9.12;31.15
80640;BME280;69992;60.170;24.692;2024-03-08T08:31:18;102439.23;;;-8.03;31.12
80640;BME280;69992;60.170;24.692;2024-03-08T08:33:43;102440.65;;;-7.96;31.09
80640;BME280;69992;60.170;24.692;2024-03-08T08:36:08;102437.66;;;-6.89;31.11
80640;BME280;69992;60.170;24.692;2024-03-08T08:38:33;102436.57;;;-7.66;31.10
80640;BME280;69992;60.170;24.692;2024-03-08T08:40:58;102433.10;;;-8.44;31.05
80640;BME280;69992;60.170;24.692;2024-03-08T08:43:24;102434.56;;;-7.44;31.05
80640;BME280;69992;60.170;24.692;2024-03-08T08:45:49;102434.87;;;-7.46;31.05
80640;BME280;69992;60.170;24.692;2024-03-08T08:48:14;102436.39;;;-7.50;31.09
80640;BME280;69992;60.170;24.692;2024-03-08T08:50:39;102436.55;;;-7.41;31.12
80640;BME280;69992;60.170;24.692;2024-03-08T08:53:04;102438.08;;;-7.18;31.09
80640;BME280;69992;60.170;24.692;2024-03-08T08:55:29;102436.99;;;-8.04;31.04
80640;BME280;69992;60.170;24.692;2024-03-08T08:57:54;102438.50;;;-9.13;31.09
80640;BME280;69992;60.170;24.692;2024-03-08T09:00:19;102437.47;;;-7.21;31.08
80640;BME280;69992;60.170;24.692;2024-03-08T09:02:44;102440.20;;;-7.31;31.09
80640;BME280;69992;60.170;24.692;2024-03-08T09:05:10;102443.22;;;-8.38;31.15
80640;BME280;69992;60.170;24.692;2024-03-08T09:07:35;102449.02;;;-7.28;31.17
80640;BME280;69992;60.170;24.692;2024-03-08T09:10:00;102453.56;;;-7.20;31.20
80640;BME280;69992;60.170;24.692;2024-03-08T09:12:25;102457.33;;;-7.09;31.23
80640;BME280;69992;60.170;24.692;2024-03-08T09:14:50;102460.18;;;-9.00;31.21
80640;BME280;69992;60.170;24.692;2024-03-08T09:17:16;102461.86;;;-6.92;31.22
80640;BME280;69992;60.170;24.692;2024-03-08T09:19:41;102460.03;;;-7.00;31.17
80640;BME280;69992;60.170;24.692;2024-03-08T09:22:07;102462.71;;;-7.40;31.29
80640;BME280;69992;60.170;24.692;2024-03-08T09:24:31;102464.48;;;-6.39;31.35
80640;BME280;69992;60.170;24.692;2024-03-08T09:26:56;102465.08;;;-7.20;31.35
80640;BME280;69992;60.170;24.692;2024-03-08T09:29:21;102464.76;;;-7.07;31.37
80640;BME280;69992;60.170;24.692;2024-03-08T09:31:47;102465.81;;;-6.89;31.34
80640;BME280;69992;60.170;24.692;2024-03-08T09:34:12;102470.07;;;-7.63;31.30
80640;BME280;69992;60.170;24.692;2024-03-08T09:36:37;102473.31;;;-6.64;31.25
80640;BME280;69992;60.170;24.692;2024-03-08T09:39:02;102476.47;;;-7.54;31.30
80640;BME280;69992;60.170;24.692;2024-03-08T09:41:27;102477.02;;;-8.36;31.28
80640;BME280;69992;60.170;24.692;2024-03-08T09:43:52;102474.69;;;-8.20;31.30
80640;BME280;69992;60.170;24.692;2024-03-08T09:46:19;102474.86;;;-8.04;31.20
80640;BME280;69992;60.170;24.692;2024-03-08T09:48:44;102470.44;;;-6.97;31.21
80640;BME280;69992;60.170;24.692;2024-03-08T09:51:09;102471.56;;;-7.87;31.24
80640;BME280;69992;60.170;24.692;2024-03-08T09:53:35;102469.18;;;-7.82;31.23
80640;BME280;69992;60.170;24.692;2024-03-08T09:55:59;102466.05;;;-5.74;31.23
80640;BME280;69992;60.170;24.692;2024-03-08T09:58:25;102466.48;;;-6.58;31.24
80640;BME280;69992;60.170;24.692;2024-03-08T10:00:49;102461.34;;;-7.42;31.21
80640;BME280;69992;60.170;24.692;2024-03-08T10:03:14;102458.19;;;-7.35;31.21
80640;BME280;69992;60.170;24.692;2024-03-08T10:05:40;102456.96;;;-6.15;31.20
80640;BME280;69992;60.170;24.692;2024-03-08T10:08:05;102455.59;;;-7.10;31.20
80640;BME280;69992;60.170;24.692;2024-03-08T10:10:30;102456.08;;;-7.06;31.20
80640;BME280;69992;60.170;24.692;2024-03-08T10:12:55;102455.50;;;-7.06;31.27
80640;BME280;69992;60.170;24.692;2024-03-08T10:15:20;102458.55;;;-6.96;31.26
80640;BME280;69992;60.170;24.692;2024-03-08T10:17:45;102458.78;;;-6.98;31.24
80640;BME280;69992;60.170;24.692;2024-03-08T10:20:14;102457.39;;;-6.93;31.23
80640;BME280;69992;60.170;24.692;2024-03-08T10:22:35;102455.23;;;-5.98;31.23
80640;BME280;69992;60.170;24.692;2024-03-08T10:25:00;102455.82;;;-7.06;31.26
80640;BME280;69992;60.170;24.692;2024-03-08T10:27:25;102454.38;;;-7.16;31.31
80640;BME280;69992;60.170;24.692;2024-03-08T10:29:51;102452.39;;;-9.18;31.34
80640;BME280;69992;60.170;24.692;2024-03-08T10:32:15;102450.67;;;-6.27;30.75
80640;BME280;69992;60.170;24.692;2024-03-08T10:34:40;102453.93;;;-6.77;31.02
80640;BME280;69992;60.170;24.692;2024-03-08T10:37:07;102453.10;;;-6.92;31.19
80640;BME280;69992;60.170;24.692;2024-03-08T10:39:35;102455.19;;;-7.10;31.23
80640;BME280;69992;60.170;24.692;2024-03-08T10:41:57;102455.65;;;-7.18;31.31
80640;BME280;69992;60.170;24.692;2024-03-08T10:44:34;102454.33;;;-7.15;31.36
80640;BME280;69992;60.170;24.692;2024-03-08T10:46:59;102456.63;;;-7.06;31.34
80640;BME280;69992;60.170;24.692;2024-03-08T10:49:16;102458.31;;;-6.99;31.31
80640;BME280;69992;60.170;24.692;2024-03-08T10:51:37;102459.10;;;-6.94;31.33
80640;BME280;69992;60.170;24.692;2024-03-08T10:54:02;102460.85;;;-5.92;31.33
80640;BME280;69992;60.170;24.692;2024-03-08T10:56:27;102459.21;;;-6.98;31.38
80640;BME280;69992;60.170;24.692;2024-03-08T10:58:53;102456.66;;;-6.90;31.41
80640;BME280;69992;60.170;24.692;2024-03-08T11:01:18;102454.63;;;-6.83;31.44
80640;BME280;69992;60.170;24.692;2024-03-08T11:03:46;102452.67;;;-6.79;31.42
80640;BME280;69992;60.170;24.692;2024-03-08T11:06:14;102453.21;;;-6.84;31.47
80640;BME280;69992;60.170;24.692;2024-03-08T11:08:36;102455.06;;;-6.93;31.45
80640;BME280;69992;60.170;24.692;2024-03-08T11:10:59;102454.91;;;-6.98;31.51
80640;BME280;69992;60.170;24.692;2024-03-08T11:13:33;102457.93;;;-6.87;31.53
80640;BME280;69992;60.170;24.692;2024-03-08T11:15:50;102459.08;;;-6.74;31.48
80640;BME280;69992;60.170;24.692;2024-03-08T11:18:15;102463.16;;;-6.72;31.46
80640;BME280;69992;60.170;24.692;2024-03-08T11:20:41;102465.57;;;-6.78;31.52
80640;BME280;69992;60.170;24.692;2024-03-08T11:23:05;102467.47;;;-6.70;31.52
80640;BME280;69992;60.170;24.692;2024-03-08T11:25:33;102472.10;;;-6.77;31.48
80640;BME280;69992;60.170;24.692;2024-03-08T11:28:09;102470.27;;;-7.87;31.54
80640;BME280;69992;60.170;24.692;2024-03-08T11:30:22;102471.27;;;-6.64;31.48
80640;BME280;69992;60.170;24.692;2024-03-08T11:32:47;102471.55;;;-6.64;31.45
80640;BME280;69992;60.170;24.692;2024-03-08T11:35:18;102469.01;;;-6.65;31.52
80640;BME280;69992;60.170;24.692;2024-03-08T11:37:38;102467.10;;;-6.70;31.56
80640;BME280;69992;60.170;24.692;2024-03-08T11:40:11;102465.34;;;-6.69;31.58
80640;BME280;69992;60.170;24.692;2024-03-08T11:42:28;102467.30;;;-6.67;31.57
80640;BME280;69992;60.170;24.692;2024-03-08T11:44:53;102467.43;;;-7.56;31.56
80640;BME280;69992;60.170;24.692;2024-03-08T11:47:18;102464.86;;;-6.57;31.58
80640;BME280;69992;60.170;24.692;2024-03-08T11:49:44;102467.00;;;-6.51;31.55
80640;BME280;69992;60.170;24.692;2024-03-08T11:52:11;102465.56;;;-6.59;31.57
80640;BME280;69992;60.170;24.692;2024-03-08T11:54:35;102464.96;;;-6.54;31.59
80640;BME280;69992;60.170;24.692;2024-03-08T11:57:00;102465.63;;;-6.54;31.63
80640;BME280;69992;60.170;24.692;2024-03-08T11:59:26;102468.61;;;-6.44;31.63
80640;BME280;69992;60.170;24.692;2024-03-08T12:01:59;102465.87;;;-7.33;31.57
80640;BME280;69992;60.170;24.692;2024-03-08T12:04:15;102467.72;;;-6.27;31.57
80640;BME280;69992;60.170;24.692;2024-03-08T12:06:41;102468.73;;;-6.13;31.53
80640;BME280;69992;60.170;24.692;2024-03-08T12:09:08;102468.15;;;-5.98;31.53
80640;BME280;69992;60.170;24.692;2024-03-08T12:11:31;102471.59;;;-6.89;31.54
80640;BME280;69992;60.170;24.692;2024-03-08T12:13:56;102471.85;;;-5.91;31.56
80640;BME280;69992;60.170;24.692;2024-03-08T12:16:21;102473.95;;;-5.90;31.56
80640;BME280;69992;60.170;24.692;2024-03-08T12:18:46;102472.89;;;-5.85;31.56
80640;BME280;69992;60.170;24.692;2024-03-08T12:21:12;102473.85;;;-5.83;31.57
80640;BME280;69992;60.170;24.692;2024-03-08T12:23:36;102471.04;;;-5.76;31.55
80640;BME280;69992;60.170;24.692;2024-03-08T12:26:11;102468.79;;;-5.74;31.56